sensor_id;sensor_type;location;lat;lon;timestamp;temperature;humidity
38684;DHT22;24910;53.248;-6.134;2023-12-29T00:01:17;8.90;89.00
38684;DHT22;24910;53.248;-6.134;2023-12-29T00:03:47;8.90;89.00
38684;DHT22;24910;53.248;-6.134;2023-12-29T00:06:17;8.90;89.00
38684;DHT22;24910;53.248;-6.134;2023-12-29T00:08:46;8.90;88.90
38684;DHT22;24910;53.248;-6.134;2023-12-29T00:11:19;8.90;88.90
38684;DHT22;24910;53.248;-6.134;2023-12-29T00:13:49;8.90;89.00
38684;DHT22;24910;53.248;-6.134;2023-12-29T00:16:18;8.90;88.90
38684;DHT22;24910;53.248;-6.134;2023-12-29T00:18:47;8.90;88.90
38684;DHT22;24910;53.248;-6.134;2023-12-29T00:21:18;8.90;88.90
38684;DHT22;24910;53.248;-6.134;2023-12-29T00:23:47;8.90;88.80
38684;DHT22;24910;53.248;-6.134;2023-12-29T00:26:17;8.90;88.90
38684;DHT22;24910;53.248;-6.134;2023-12-29T00:28:54;8.90;89.00
38684;DHT22;24910;53.248;-6.134;2023-12-29T00:31:23;8.90;89.00
38684;DHT22;24910;53.248;-6.134;2023-12-29T00:33:53;8.90;89.00
38684;DHT22;24910;53.248;-6.134;2023-12-29T00:36:24;8.90;89.00
38684;DHT22;24910;53.248;-6.134;2023-12-29T00:38:53;8.90;89.00
38684;DHT22;24910;53.248;-6.134;2023-12-29T00:41:23;8.90;89.10
38684;DHT22;24910;53.248;-6.134;2023-12-29T00:43:52;8.90;89.10
38684;DHT22;24910;53.248;-6.134;2023-12-29T00:46:21;8.90;89.00
38684;DHT22;24910;53.248;-6.134;2023-12-29T00:48:50;8.80;89.00
38684;DHT22;24910;53.248;-6.134;2023-12-29T00:51:20;8.80;89.00
38684;DHT22;24910;53.248;-6.134;2023-12-29T00:53:50;8.80;89.10
38684;DHT22;24910;53.248;-6.134;2023-12-29T00:56:20;8.80;89.30
38684;DHT22;24910;53.248;-6.134;2023-12-29T00:58:49;8.70;89.40
38684;DHT22;24910;53.248;-6.134;2023-12-29T01:01:20;8.70;89.50
38684;DHT22;24910;53.248;-6.134;2023-12-29T01:03:49;8.70;89.60
38684;DHT22;24910;53.248;-6.134;2023-12-29T01:06:23;8.60;89.50
38684;DHT22;24910;53.248;-6.134;2023-12-29T01:08:54;8.60;89.60
38684;DHT22;24910;53.248;-6.134;2023-12-29T01:11:23;8.60;89.50
38684;DHT22;24910;53.248;-6.134;2023-12-29T01:13:53;8.60;89.50
38684;DHT22;24910;53.248;-6.134;2023-12-29T01:16:22;8.60;89.40
38684;DHT22;24910;53.248;-6.134;2023-12-29T01:18:51;8.60;89.30
38684;DHT22;24910;53.248;-6.134;2023-12-29T01:21:22;8.60;89.20
38684;DHT22;24910;53.248;-6.134;2023-12-29T01:23:51;8.70;89.20
38684;DHT22;24910;53.248;-6.134;2023-12-29T01:26:21;8.60;89.10
38684;DHT22;24910;53.248;-6.134;2023-12-29T01:28:51;8.60;89.10
38684;DHT22;24910;53.248;-6.134;2023-12-29T01:31:20;8.60;89.00
38684;DHT22;24910;53.248;-6.134;2023-12-29T01:33:49;8.70;89.10
38684;DHT22;24910;53.248;-6.134;2023-12-29T01:36:19;8.70;89.00
38684;DHT22;24910;53.248;-6.134;2023-12-29T01:38:52;8.70;88.90
38684;DHT22;24910;53.248;-6.134;2023-12-29T01:41:24;8.70;88.90
38684;DHT22;24910;53.248;-6.134;2023-12-29T01:44:20;8.70;88.80
38684;DHT22;24910;53.248;-6.134;2023-12-29T01:46:50;8.60;88.80
38684;DHT22;24910;53.248;-6.134;2023-12-29T01:49:20;8.60;88.60
38684;DHT22;24910;53.248;-6.134;2023-12-29T01:51:54;8.60;88.60
38684;DHT22;24910;53.248;-6.134;2023-12-29T01:54:25;8.70;88.60
38684;DHT22;24910;53.248;-6.134;2023-12-29T01:57:00;8.60;88.40
38684;DHT22;24910;53.248;-6.134;2023-12-29T01:59:30;8.60;88.40
38684;DHT22;24910;53.248;-6.134;2023-12-29T02:02:01;8.60;88.40
38684;DHT22;24910;53.248;-6.134;2023-12-29T02:04:31;8.60;88.30
38684;DHT22;24910;53.248;-6.134;2023-12-29T02:07:01;8.60;88.30
38684;DHT22;24910;53.248;-6.134;2023-12-29T02:09:31;8.60;88.20
38684;DHT22;24910;53.248;-6.134;2023-12-29T02:12:04;8.60;88.10
38684;DHT22;24910;53.248;-6.134;2023-12-29T02:14:33;8.60;88.20
38684;DHT22;24910;53.248;-6.134;2023-12-29T02:17:10;8.60;88.10
38684;DHT22;24910;53.248;-6.134;2023-12-29T02:19:44;8.60;88.10
38684;DHT22;24910;53.248;-6.134;2023-12-29T02:22:15;8.60;88.10
38684;DHT22;24910;53.248;-6.134;2023-12-29T02:24:46;8.60;87.90
38684;DHT22;24910;53.248;-6.134;2023-12-29T02:27:34;8.50;87.80
38684;DHT22;24910;53.248;-6.134;2023-12-29T02:30:10;8.50;87.80
38684;DHT22;24910;53.248;-6.134;2023-12-29T02:32:43;8.50;87.80
38684;DHT22;24910;53.248;-6.134;2023-12-29T02:35:16;8.50;87.80
38684;DHT22;24910;53.248;-6.134;2023-12-29T02:37:47;8.50;87.80
38684;DHT22;24910;53.248;-6.134;2023-12-29T02:40:19;8.50;87.80
38684;DHT22;24910;53.248;-6.134;2023-12-29T02:42:49;8.50;87.70
38684;DHT22;24910;53.248;-6.134;2023-12-29T02:45:18;8.50;87.80
38684;DHT22;24910;53.248;-6.134;2023-12-29T02:47:48;8.50;87.80
38684;DHT22;24910;53.248;-6.134;2023-12-29T02:50:18;8.50;87.70
38684;DHT22;24910;53.248;-6.134;2023-12-29T02:52:47;8.50;87.70
38684;DHT22;24910;53.248;-6.134;2023-12-29T02:55:18;8.50;87.70
38684;DHT22;24910;53.248;-6.134;2023-12-29T02:57:48;8.50;87.70
38684;DHT22;24910;53.248;-6.134;2023-12-29T03:00:19;8.50;87.60
38684;DHT22;24910;53.248;-6.134;2023-12-29T03:02:52;8.50;87.60
38684;DHT22;24910;53.248;-6.134;2023-12-29T03:05:31;8.50;87.50
38684;DHT22;24910;53.248;-6.134;2023-12-29T03:08:01;8.50;87.50
38684;DHT22;24910;53.248;-6.134;2023-12-29T03:10:32;8.40;87.30
38684;DHT22;24910;53.248;-6.134;2023-12-29T03:13:05;8.40;87.30
38684;DHT22;24910;53.248;-6.134;2023-12-29T03:15:36;8.40;87.40
38684;DHT22;24910;53.248;-6.134;2023-12-29T03:18:19;8.40;87.10
38684;DHT22;24910;53.248;-6.134;2023-12-29T03:20:54;8.40;87.00
38684;DHT22;24910;53.248;-6.134;2023-12-29T03:23:24;8.40;86.90
38684;DHT22;24910;53.248;-6.134;2023-12-29T03:25:54;8.40;86.80
38684;DHT22;24910;53.248;-6.134;2023-12-29T03:28:24;8.40;86.80
38684;DHT22;24910;53.248;-6.134;2023-12-29T03:30:53;8.40;86.80
38684;DHT22;24910;53.248;-6.134;2023-12-29T03:33:23;8.40;86.80
38684;DHT22;24910;53.248;-6.134;2023-12-29T03:35:52;8.40;86.70
38684;DHT22;24910;53.248;-6.134;2023-12-29T03:38:21;8.40;86.60
38684;DHT22;24910;53.248;-6.134;2023-12-29T03:40:50;8.40;86.50
38684;DHT22;24910;53.248;-6.134;2023-12-29T03:43:21;8.40;86.40
38684;DHT22;24910;53.248;-6.134;2023-12-29T03:45:50;8.40;86.40
38684;DHT22;24910;53.248;-6.134;2023-12-29T03:48:19;8.40;86.30
38684;DHT22;24910;53.248;-6.134;2023-12-29T03:50:49;8.40;86.30
38684;DHT22;24910;53.248;-6.134;2023-12-29T03:53:19;8.40;86.10
38684;DHT22;24910;53.248;-6.134;2023-12-29T03:55:49;8.40;86.10
38684;DHT22;24910;53.248;-6.134;2023-12-29T03:58:18;8.30;86.10
38684;DHT22;24910;53.248;-6.134;2023-12-29T04:00:49;8.40;86.10
38684;DHT22;24910;53.248;-6.134;2023-12-29T04:03:18;8.30;86.00
38684;DHT22;24910;53.248;-6.134;2023-12-29T04:05:47;8.30;86.10
38684;DHT22;24910;53.248;-6.134;2023-12-29T04:08:17;8.30;86.10
38684;DHT22;24910;53.248;-6.134;2023-12-29T04:10:46;8.30;86.10
38684;DHT22;24910;53.248;-6.134;2023-12-29T04:13:15;8.30;86.20
38684;DHT22;24910;53.248;-6.134;2023-12-29T04:15:45;8.30;86.20
38684;DHT22;24910;53.248;-6.134;2023-12-29T04:18:16;8.30;86.20
38684;DHT22;24910;53.248;-6.134;2023-12-29T04:20:45;8.30;86.20
38684;DHT22;24910;53.248;-6.134;2023-12-29T04:23:15;8.30;86.20
38684;DHT22;24910;53.248;-6.134;2023-12-29T04:25:44;8.30;86.20
38684;DHT22;24910;53.248;-6.134;2023-12-29T04:28:13;8.30;86.10
38684;DHT22;24910;53.248;-6.134;2023-12-29T04:30:43;8.40;86.20
38684;DHT22;24910;53.248;-6.134;2023-12-29T04:33:12;8.40;86.20
38684;DHT22;24910;53.248;-6.134;2023-12-29T04:35:43;8.40;86.20
38684;DHT22;24910;53.248;-6.134;2023-12-29T04:38:12;8.30;86.20
38684;DHT22;24910;53.248;-6.134;2023-12-29T04:40:42;8.40;86.30
38684;DHT22;24910;53.248;-6.134;2023-12-29T04:43:11;8.40;86.40
38684;DHT22;24910;53.248;-6.134;2023-12-29T04:45:40;8.40;86.50
38684;DHT22;24910;53.248;-6.134;2023-12-29T04:48:10;8.40;86.50
38684;DHT22;24910;53.248;-6.134;2023-12-29T04:50:40;8.40;86.40
38684;DHT22;24910;53.248;-6.134;2023-12-29T04:53:10;8.30;86.40
38684;DHT22;24910;53.248;-6.134;2023-12-29T04:55:40;8.30;86.50
38684;DHT22;24910;53.248;-6.134;2023-12-29T04:58:09;8.30;86.50
38684;DHT22;24910;53.248;-6.134;2023-12-29T05:00:38;8.30;86.60
38684;DHT22;24910;53.248;-6.134;2023-12-29T05:03:07;8.30;86.60
38684;DHT22;24910;53.248;-6.134;2023-12-29T05:05:37;8.30;86.70
38684;DHT22;24910;53.248;-6.134;2023-12-29T05:08:06;8.20;86.60
38684;DHT22;24910;53.248;-6.134;2023-12-29T05:10:37;8.30;86.80
38684;DHT22;24910;53.248;-6.134;2023-12-29T05:13:06;8.30;86.70
38684;DHT22;24910;53.248;-6.134;2023-12-29T05:15:35;8.30;86.60
38684;DHT22;24910;53.248;-6.134;2023-12-29T05:18:05;8.20;86.50
38684;DHT22;24910;53.248;-6.134;2023-12-29T05:20:34;8.30;86.60
38684;DHT22;24910;53.248;-6.134;2023-12-29T05:23:04;8.20;86.60
38684;DHT22;24910;53.248;-6.134;2023-12-29T05:25:33;8.20;86.60
38684;DHT22;24910;53.248;-6.134;2023-12-29T05:28:04;8.30;86.60
38684;DHT22;24910;53.248;-6.134;2023-12-29T05:30:33;8.20;86.50
38684;DHT22;24910;53.248;-6.134;2023-12-29T05:33:03;8.20;86.40
38684;DHT22;24910;53.248;-6.134;2023-12-29T05:35:32;8.30;86.40
38684;DHT22;24910;53.248;-6.134;2023-12-29T05:38:03;8.30;86.40
38684;DHT22;24910;53.248;-6.134;2023-12-29T05:40:32;8.20;86.30
38684;DHT22;24910;53.248;-6.134;2023-12-29T05:43:01;8.30;86.40
38684;DHT22;24910;53.248;-6.134;2023-12-29T05:45:32;8.30;86.40
38684;DHT22;24910;53.248;-6.134;2023-12-29T05:48:01;8.30;86.60
38684;DHT22;24910;53.248;-6.134;2023-12-29T05:50:31;8.30;86.60
38684;DHT22;24910;53.248;-6.134;2023-12-29T05:53:00;8.30;86.60
38684;DHT22;24910;53.248;-6.134;2023-12-29T05:55:29;8.30;86.60
38684;DHT22;24910;53.248;-6.134;2023-12-29T05:57:59;8.30;86.40
38684;DHT22;24910;53.248;-6.134;2023-12-29T06:00:28;8.30;86.40
38684;DHT22;24910;53.248;-6.134;2023-12-29T06:02:59;8.30;86.40
38684;DHT22;24910;53.248;-6.134;2023-12-29T06:05:28;8.30;86.40
38684;DHT22;24910;53.248;-6.134;2023-12-29T06:07:57;8.30;86.40
38684;DHT22;24910;53.248;-6.134;2023-12-29T06:10:27;8.30;86.40
38684;DHT22;24910;53.248;-6.134;2023-12-29T06:12:56;8.30;86.40
38684;DHT22;24910;53.248;-6.134;2023-12-29T06:15:25;8.30;86.40
38684;DHT22;24910;53.248;-6.134;2023-12-29T06:17:55;8.30;86.40
38684;DHT22;24910;53.248;-6.134;2023-12-29T06:20:26;8.30;86.40
38684;DHT22;24910;53.248;-6.134;2023-12-29T06:22:55;8.30;86.50
38684;DHT22;24910;53.248;-6.134;2023-12-29T06:25:25;8.30;86.50
38684;DHT22;24910;53.248;-6.134;2023-12-29T06:27:54;8.30;86.40
38684;DHT22;24910;53.248;-6.134;2023-12-29T06:30:24;8.30;86.40
38684;DHT22;24910;53.248;-6.134;2023-12-29T06:32:53;8.30;86.40
38684;DHT22;24910;53.248;-6.134;2023-12-29T06:35:22;8.30;86.40
38684;DHT22;24910;53.248;-6.134;2023-12-29T06:37:53;8.30;86.40
38684;DHT22;24910;53.248;-6.134;2023-12-29T06:40:22;8.30;86.40
38684;DHT22;24910;53.248;-6.134;2023-12-29T06:42:52;8.30;86.40
38684;DHT22;24910;53.248;-6.134;2023-12-29T06:45:21;8.30;86.40
38684;DHT22;24910;53.248;-6.134;2023-12-29T06:47:50;8.30;86.40
38684;DHT22;24910;53.248;-6.134;2023-12-29T06:50:19;8.30;86.40
38684;DHT22;24910;53.248;-6.134;2023-12-29T06:52:49;8.30;86.40
38684;DHT22;24910;53.248;-6.134;2023-12-29T06:55:19;8.30;86.40
38684;DHT22;24910;53.248;-6.134;2023-12-29T06:57:48;8.30;86.40
38684;DHT22;24910;53.248;-6.134;2023-12-29T07:00:18;8.30;86.40
38684;DHT22;24910;53.248;-6.134;2023-12-29T07:02:48;8.30;86.50
38684;DHT22;24910;53.248;-6.134;2023-12-29T07:05:17;8.30;86.50
38684;DHT22;24910;53.248;-6.134;2023-12-29T07:07:46;8.30;86.60
38684;DHT22;24910;53.248;-6.134;2023-12-29T07:10:15;8.30;87.50
38684;DHT22;24910;53.248;-6.134;2023-12-29T07:12:46;8.30;86.60
38684;DHT22;24910;53.248;-6.134;2023-12-29T07:15:16;8.30;86.60
38684;DHT22;24910;53.248;-6.134;2023-12-29T07:17:45;8.30;87.30
38684;DHT22;24910;53.248;-6.134;2023-12-29T07:20:15;8.30;86.50
38684;DHT22;24910;53.248;-6.134;2023-12-29T07:22:44;8.30;86.50
38684;DHT22;24910;53.248;-6.134;2023-12-29T07:25:14;8.30;86.40
38684;DHT22;24910;53.248;-6.134;2023-12-29T07:27:43;8.30;86.40
38684;DHT22;24910;53.248;-6.134;2023-12-29T07:30:15;8.30;86.50
38684;DHT22;24910;53.248;-6.134;2023-12-29T07:32:44;8.30;86.50
38684;DHT22;24910;53.248;-6.134;2023-12-29T07:35:14;8.30;86.60
38684;DHT22;24910;53.248;-6.134;2023-12-29T07:37:46;8.30;86.50
38684;DHT22;24910;53.248;-6.134;2023-12-29T07:40:15;8.20;86.60
38684;DHT22;24910;53.248;-6.134;2023-12-29T07:42:45;8.30;86.60
38684;DHT22;24910;53.248;-6.134;2023-12-29T07:45:20;8.30;86.70
38684;DHT22;24910;53.248;-6.134;2023-12-29T07:47:49;8.30;86.60
38684;DHT22;24910;53.248;-6.134;2023-12-29T07:50:18;8.30;86.60
38684;DHT22;24910;53.248;-6.134;2023-12-29T07:52:48;8.30;86.60
38684;DHT22;24910;53.248;-6.134;2023-12-29T07:55:17;8.30;86.60
38684;DHT22;24910;53.248;-6.134;2023-12-29T07:57:47;8.30;86.50
38684;DHT22;24910;53.248;-6.134;2023-12-29T08:00:16;8.30;86.60
38684;DHT22;24910;53.248;-6.134;2023-12-29T08:02:47;8.30;86.60
38684;DHT22;24910;53.248;-6.134;2023-12-29T08:05:16;8.30;86.50
38684;DHT22;24910;53.248;-6.134;2023-12-29T08:07:46;8.30;86.50
38684;DHT22;24910;53.248;-6.134;2023-12-29T08:10:15;8.30;86.60
38684;DHT22;24910;53.248;-6.134;2023-12-29T08:12:44;8.30;86.60
38684;DHT22;24910;53.248;-6.134;2023-12-29T08:15:14;8.30;86.60
38684;DHT22;24910;53.248;-6.134;2023-12-29T08:17:43;8.30;86.60
38684;DHT22;24910;53.248;-6.134;2023-12-29T08:20:14;8.30;86.60
38684;DHT22;24910;53.248;-6.134;2023-12-29T08:22:43;8.30;86.60
38684;DHT22;24910;53.248;-6.134;2023-12-29T08:25:12;8.40;86.60
38684;DHT22;24910;53.248;-6.134;2023-12-29T08:27:42;8.40;86.60
38684;DHT22;24910;53.248;-6.134;2023-12-29T08:30:12;8.40;86.60
38684;DHT22;24910;53.248;-6.134;2023-12-29T08:32:41;8.40;86.50
38684;DHT22;24910;53.248;-6.134;2023-12-29T08:35:11;8.40;86.50
38684;DHT22;24910;53.248;-6.134;2023-12-29T08:37:42;8.40;86.60
38684;DHT22;24910;53.248;-6.134;2023-12-29T08:40:11;8.40;86.50
38684;DHT22;24910;53.248;-6.134;2023-12-29T08:42:41;8.40;86.60
38684;DHT22;24910;53.248;-6.134;2023-12-29T08:45:10;8.40;86.50
38684;DHT22;24910;53.248;-6.134;2023-12-29T08:47:40;8.40;86.40
38684;DHT22;24910;53.248;-6.134;2023-12-29T08:50:09;8.40;86.50
38684;DHT22;24910;53.248;-6.134;2023-12-29T08:52:38;8.40;86.60
38684;DHT22;24910;53.248;-6.134;2023-12-29T08:55:09;8.40;86.60
38684;DHT22;24910;53.248;-6.134;2023-12-29T08:57:39;8.40;86.70
38684;DHT22;24910;53.248;-6.134;2023-12-29T09:00:09;8.40;86.70
38684;DHT22;24910;53.248;-6.134;2023-12-29T09:02:38;8.40;86.80
38684;DHT22;24910;53.248;-6.134;2023-12-29T09:05:08;8.40;86.80
38684;DHT22;24910;53.248;-6.134;2023-12-29T09:07:37;8.40;86.80
38684;DHT22;24910;53.248;-6.134;2023-12-29T09:10:08;8.50;86.90
38684;DHT22;24910;53.248;-6.134;2023-12-29T09:12:39;8.50;86.80
38684;DHT22;24910;53.248;-6.134;2023-12-29T09:15:08;8.50;86.80
38684;DHT22;24910;53.248;-6.134;2023-12-29T09:17:38;8.50;86.80
38684;DHT22;24910;53.248;-6.134;2023-12-29T09:20:08;8.50;86.80
38684;DHT22;24910;53.248;-6.134;2023-12-29T09:22:38;8.50;86.90
38684;DHT22;24910;53.248;-6.134;2023-12-29T09:25:09;8.50;86.90
38684;DHT22;24910;53.248;-6.134;2023-12-29T09:27:39;8.60;86.90
38684;DHT22;24910;53.248;-6.134;2023-12-29T09:30:09;8.60;86.90
38684;DHT22;24910;53.248;-6.134;2023-12-29T09:32:38;8.60;86.90
38684;DHT22;24910;53.248;-6.134;2023-12-29T09:35:07;8.60;86.90
38684;DHT22;24910;53.248;-6.134;2023-12-29T09:37:37;8.60;86.80
38684;DHT22;24910;53.248;-6.134;2023-12-29T09:40:07;8.60;86.80
38684;DHT22;24910;53.248;-6.134;2023-12-29T09:42:43;8.70;86.90
38684;DHT22;24910;53.248;-6.134;2023-12-29T09:45:13;8.60;86.90
38684;DHT22;24910;53.248;-6.134;2023-12-29T09:47:43;8.70;86.80
38684;DHT22;24910;53.248;-6.134;2023-12-29T09:50:13;8.70;86.80
38684;DHT22;24910;53.248;-6.134;2023-12-29T09:52:43;8.70;86.80
38684;DHT22;24910;53.248;-6.134;2023-12-29T09:55:13;8.70;87.60
38684;DHT22;24910;53.248;-6.134;2023-12-29T09:57:44;8.70;86.70
38684;DHT22;24910;53.248;-6.134;2023-12-29T10:00:17;8.80;86.90
38684;DHT22;24910;53.248;-6.134;2023-12-29T10:02:53;8.80;86.90
38684;DHT22;24910;53.248;-6.134;2023-12-29T10:05:25;8.80;86.80
38684;DHT22;24910;53.248;-6.134;2023-12-29T10:07:55;8.80;86.80
38684;DHT22;24910;53.248;-6.134;2023-12-29T10:10:27;8.80;86.70
38684;DHT22;24910;53.248;-6.134;2023-12-29T10:12:59;8.80;86.70
38684;DHT22;24910;53.248;-6.134;2023-12-29T10:15:37;8.90;86.70
38684;DHT22;24910;53.248;-6.134;2023-12-29T10:18:17;8.90;86.70
38684;DHT22;24910;53.248;-6.134;2023-12-29T10:20:58;8.90;86.70
38684;DHT22;24910;53.248;-6.134;2023-12-29T10:23:32;8.90;86.70
38684;DHT22;24910;53.248;-6.134;2023-12-29T10:26:05;9.00;86.80
38684;DHT22;24910;53.248;-6.134;2023-12-29T10:28:37;9.00;86.60
38684;DHT22;24910;53.248;-6.134;2023-12-29T10:31:10;9.20;86.60
38684;DHT22;24910;53.248;-6.134;2023-12-29T10:33:43;9.40;86.40
38684;DHT22;24910;53.248;-6.134;2023-12-29T10:36:18;9.50;86.20
38684;DHT22;24910;53.248;-6.134;2023-12-29T10:38:48;9.50;85.90
38684;DHT22;24910;53.248;-6.134;2023-12-29T10:41:18;9.40;85.80
38684;DHT22;24910;53.248;-6.134;2023-12-29T10:43:49;9.40;85.80
38684;DHT22;24910;53.248;-6.134;2023-12-29T10:46:20;9.30;85.90
38684;DHT22;24910;53.248;-6.134;2023-12-29T10:48:50;9.20;86.20
38684;DHT22;24910;53.248;-6.134;2023-12-29T10:51:26;9.10;86.40
38684;DHT22;24910;53.248;-6.134;2023-12-29T10:53:57;9.00;86.60
38684;DHT22;24910;53.248;-6.134;2023-12-29T10:56:26;8.90;86.70
38684;DHT22;24910;53.248;-6.134;2023-12-29T10:59:02;8.80;86.70
38684;DHT22;24910;53.248;-6.134;2023-12-29T11:01:32;8.80;86.90
38684;DHT22;24910;53.248;-6.134;2023-12-29T11:04:03;8.70;87.00
38684;DHT22;24910;53.248;-6.134;2023-12-29T11:06:40;8.70;87.00
38684;DHT22;24910;53.248;-6.134;2023-12-29T11:09:11;8.60;86.90
38684;DHT22;24910;53.248;-6.134;2023-12-29T11:11:42;8.60;86.80
38684;DHT22;24910;53.248;-6.134;2023-12-29T11:14:13;8.60;86.90
38684;DHT22;24910;53.248;-6.134;2023-12-29T11:16:43;8.50;87.00
38684;DHT22;24910;53.248;-6.134;2023-12-29T11:19:13;8.50;87.20
38684;DHT22;24910;53.248;-6.134;2023-12-29T11:21:45;8.50;87.10
38684;DHT22;24910;53.248;-6.134;2023-12-29T11:24:15;8.50;88.00
38684;DHT22;24910;53.248;-6.134;2023-12-29T11:26:54;8.50;87.10
38684;DHT22;24910;53.248;-6.134;2023-12-29T11:29:25;8.50;87.10
38684;DHT22;24910;53.248;-6.134;2023-12-29T11:31:56;8.60;87.20
38684;DHT22;24910;53.248;-6.134;2023-12-29T11:34:35;8.70;87.20
38684;DHT22;24910;53.248;-6.134;2023-12-29T11:37:14;8.80;87.10
38684;DHT22;24910;53.248;-6.134;2023-12-29T11:39:50;8.90;87.00
38684;DHT22;24910;53.248;-6.134;2023-12-29T11:42:26;8.90;86.80
38684;DHT22;24910;53.248;-6.134;2023-12-29T11:45:26;8.90;86.90
38684;DHT22;24910;53.248;-6.134;2023-12-29T11:47:59;8.90;86.80
38684;DHT22;24910;53.248;-6.134;2023-12-29T11:50:31;8.90;87.10
38684;DHT22;24910;53.248;-6.134;2023-12-29T11:53:01;8.90;87.10
38684;DHT22;24910;53.248;-6.134;2023-12-29T11:55:34;8.90;87.10
38684;DHT22;24910;53.248;-6.134;2023-12-29T11:58:04;9.00;87.10
38684;DHT22;24910;53.248;-6.134;2023-12-29T12:00:47;9.00;87.00
38684;DHT22;24910;53.248;-6.134;2023-12-29T12:03:18;9.10;87.20
38684;DHT22;24910;53.248;-6.134;2023-12-29T12:05:49;9.10;87.30
38684;DHT22;24910;53.248;-6.134;2023-12-29T12:08:29;9.10;88.00
38684;DHT22;24910;53.248;-6.134;2023-12-29T12:14:02;9.10;86.90
38684;DHT22;24910;53.248;-6.134;2023-12-29T12:16:49;9.20;86.90
38684;DHT22;24910;53.248;-6.134;2023-12-29T12:19:19;9.10;86.90
38684;DHT22;24910;53.248;-6.134;2023-12-29T12:21:53;9.10;86.90
38684;DHT22;24910;53.248;-6.134;2023-12-29T12:24:23;9.10;86.90
38684;DHT22;24910;53.248;-6.134;2023-12-29T12:26:54;9.10;87.00
38684;DHT22;24910;53.248;-6.134;2023-12-29T12:29:23;9.10;87.00
38684;DHT22;24910;53.248;-6.134;2023-12-29T12:31:56;9.10;87.10
38684;DHT22;24910;53.248;-6.134;2023-12-29T12:34:36;9.10;87.00
38684;DHT22;24910;53.248;-6.134;2023-12-29T12:37:06;9.10;87.00
38684;DHT22;24910;53.248;-6.134;2023-12-29T12:39:39;9.10;87.00
38684;DHT22;24910;53.248;-6.134;2023-12-29T12:42:09;9.10;86.90
38684;DHT22;24910;53.248;-6.134;2023-12-29T12:44:40;9.10;86.90
38684;DHT22;24910;53.248;-6.134;2023-12-29T12:47:17;9.10;86.90
38684;DHT22;24910;53.248;-6.134;2023-12-29T12:49:47;9.10;86.90
38684;DHT22;24910;53.248;-6.134;2023-12-29T12:52:17;9.10;86.90
38684;DHT22;24910;53.248;-6.134;2023-12-29T12:54:47;9.10;86.90
38684;DHT22;24910;53.248;-6.134;2023-12-29T12:57:20;9.10;86.90
38684;DHT22;24910;53.248;-6.134;2023-12-29T12:59:52;9.00;87.00
38684;DHT22;24910;53.248;-6.134;2023-12-29T13:02:24;9.00;87.00
38684;DHT22;24910;53.248;-6.134;2023-12-29T13:04:54;9.00;87.10
38684;DHT22;24910;53.248;-6.134;2023-12-29T13:07:23;8.90;87.20
38684;DHT22;24910;53.248;-6.134;2023-12-29T13:09:53;8.90;87.00
38684;DHT22;24910;53.248;-6.134;2023-12-29T13:12:22;8.90;87.80
38684;DHT22;24910;53.248;-6.134;2023-12-29T13:14:51;8.90;87.00
38684;DHT22;24910;53.248;-6.134;2023-12-29T13:17:20;8.90;87.00
38684;DHT22;24910;53.248;-6.134;2023-12-29T13:19:57;8.90;87.10
38684;DHT22;24910;53.248;-6.134;2023-12-29T13:22:27;9.00;87.10
38684;DHT22;24910;53.248;-6.134;2023-12-29T13:24:56;9.00;87.10
38684;DHT22;24910;53.248;-6.134;2023-12-29T13:27:26;9.00;87.10
38684;DHT22;24910;53.248;-6.134;2023-12-29T13:29:56;9.00;87.10
38684;DHT22;24910;53.248;-6.134;2023-12-29T13:32:26;9.10;87.00
38684;DHT22;24910;53.248;-6.134;2023-12-29T13:35:06;9.10;86.90
38684;DHT22;24910;53.248;-6.134;2023-12-29T13:37:44;9.10;86.90
38684;DHT22;24910;53.248;-6.134;2023-12-29T13:40:22;9.10;86.90
38684;DHT22;24910;53.248;-6.134;2023-12-29T13:42:55;9.10;86.90
38684;DHT22;24910;53.248;-6.134;2023-12-29T13:45:27;9.10;86.90
38684;DHT22;24910;53.248;-6.134;2023-12-29T13:47:57;9.00;86.80
38684;DHT22;24910;53.248;-6.134;2023-12-29T13:50:28;9.00;86.80
38684;DHT22;24910;53.248;-6.134;2023-12-29T13:52:57;8.90;86.80
38684;DHT22;24910;53.248;-6.134;2023-12-29T13:55:27;8.90;86.80
38684;DHT22;24910;53.248;-6.134;2023-12-29T13:57:57;8.80;86.90
38684;DHT22;24910;53.248;-6.134;2023-12-29T14:00:27;8.80;86.90
38684;DHT22;24910;53.248;-6.134;2023-12-29T14:03:06;8.80;86.70
38684;DHT22;24910;53.248;-6.134;2023-12-29T14:05:48;8.80;86.70
38684;DHT22;24910;53.248;-6.134;2023-12-29T14:08:19;8.80;86.70
38684;DHT22;24910;53.248;-6.134;2023-12-29T14:10:51;8.80;86.70
38684;DHT22;24910;53.248;-6.134;2023-12-29T14:13:21;8.80;86.70
38684;DHT22;24910;53.248;-6.134;2023-12-29T14:15:51;8.70;86.60
38684;DHT22;24910;53.248;-6.134;2023-12-29T14:18:36;8.70;86.60
38684;DHT22;24910;53.248;-6.134;2023-12-29T14:21:26;8.70;86.60
38684;DHT22;24910;53.248;-6.134;2023-12-29T14:24:08;8.70;86.60
38684;DHT22;24910;53.248;-6.134;2023-12-29T14:26:39;8.80;86.70
38684;DHT22;24910;53.248;-6.134;2023-12-29T14:29:10;8.70;86.60
38684;DHT22;24910;53.248;-6.134;2023-12-29T14:31:41;8.70;86.60
38684;DHT22;24910;53.248;-6.134;2023-12-29T14:34:11;8.70;86.60
38684;DHT22;24910;53.248;-6.134;2023-12-29T14:36:43;8.70;86.60
38684;DHT22;24910;53.248;-6.134;2023-12-29T14:39:12;8.60;86.70
38684;DHT22;24910;53.248;-6.134;2023-12-29T14:41:43;8.60;86.80
38684;DHT22;24910;53.248;-6.134;2023-12-29T14:44:13;8.60;86.90
38684;DHT22;24910;53.248;-6.134;2023-12-29T14:46:43;8.60;86.80
38684;DHT22;24910;53.248;-6.134;2023-12-29T14:49:12;8.60;86.80
38684;DHT22;24910;53.248;-6.134;2023-12-29T14:51:43;8.60;86.90
38684;DHT22;24910;53.248;-6.134;2023-12-29T14:54:12;8.60;86.90
38684;DHT22;24910;53.248;-6.134;2023-12-29T14:56:42;8.70;86.90
38684;DHT22;24910;53.248;-6.134;2023-12-29T14:59:11;8.60;86.80
38684;DHT22;24910;53.248;-6.134;2023-12-29T15:01:40;8.70;86.70
38684;DHT22;24910;53.248;-6.134;2023-12-29T15:04:10;8.70;86.80
38684;DHT22;24910;53.248;-6.134;2023-12-29T15:06:40;8.70;86.80
38684;DHT22;24910;53.248;-6.134;2023-12-29T15:09:11;8.70;86.80
38684;DHT22;24910;53.248;-6.134;2023-12-29T15:11:41;8.70;86.70
38684;DHT22;24910;53.248;-6.134;2023-12-29T15:14:10;8.70;86.80
38684;DHT22;24910;53.248;-6.134;2023-12-29T15:16:39;8.70;86.90
38684;DHT22;24910;53.248;-6.134;2023-12-29T15:19:08;8.70;87.00
38684;DHT22;24910;53.248;-6.134;2023-12-29T15:21:38;8.60;87.00
38684;DHT22;24910;53.248;-6.134;2023-12-29T15:24:07;8.60;86.90
38684;DHT22;24910;53.248;-6.134;2023-12-29T15:26:38;8.60;86.90
38684;DHT22;24910;53.248;-6.134;2023-12-29T15:29:07;8.60;86.90
38684;DHT22;24910;53.248;-6.134;2023-12-29T15:31:36;8.60;86.90
38684;DHT22;24910;53.248;-6.134;2023-12-29T15:34:06;8.60;86.90
38684;DHT22;24910;53.248;-6.134;2023-12-29T15:36:35;8.60;86.80
38684;DHT22;24910;53.248;-6.134;2023-12-29T15:39:04;8.60;86.90
38684;DHT22;24910;53.248;-6.134;2023-12-29T15:41:34;8.60;86.60
38684;DHT22;24910;53.248;-6.134;2023-12-29T15:44:05;8.60;86.60
38684;DHT22;24910;53.248;-6.134;2023-12-29T15:46:36;8.60;86.60
38684;DHT22;24910;53.248;-6.134;2023-12-29T15:49:05;8.60;86.60
38684;DHT22;24910;53.248;-6.134;2023-12-29T15:51:35;8.60;86.60
38684;DHT22;24910;53.248;-6.134;2023-12-29T15:54:04;8.60;86.60
38684;DHT22;24910;53.248;-6.134;2023-12-29T15:56:34;8.60;86.60